createdAt,value
2019-01-25T00:00:06.853Z,38.85
2019-01-25T00:02:33.769Z,38.48
2019-01-25T00:05:00.931Z,34.92
2019-01-25T00:07:27.940Z,37.73
2019-01-25T00:09:58.710Z,37.70
2019-01-25T00:12:24.850Z,36.08
2019-01-25T00:14:51.863Z,38.33
2019-01-25T00:17:19.265Z,37.95
2019-01-25T00:19:46.058Z,38.45
2019-01-25T00:22:13.077Z,37.83
2019-01-25T00:24:39.883Z,37.85
2019-01-25T00:27:07.278Z,38.02
2019-01-25T00:29:34.295Z,37.45
2019-01-25T00:32:01.110Z,39.90
2019-01-25T00:34:28.109Z,36.80
2019-01-25T00:36:55.033Z,39.08
2019-01-25T00:39:22.088Z,38.33
2019-01-25T00:41:49.202Z,38.08
2019-01-25T00:44:16.384Z,38.33
2019-01-25T00:46:43.380Z,37.08
2019-01-25T00:49:10.388Z,36.70
2019-01-25T00:51:37.188Z,36.13
2019-01-25T00:54:04.700Z,36.30
2019-01-25T00:56:31.607Z,35.80
2019-01-25T00:58:58.793Z,36.65
2019-01-25T01:01:27.034Z,35.35
2019-01-25T01:03:54.096Z,37.23
2019-01-25T01:06:21.353Z,34.98
2019-01-25T01:08:48.270Z,35.08
2019-01-25T01:11:15.182Z,35.90
2019-01-25T01:13:42.149Z,33.60
2019-01-25T01:16:09.048Z,34.40
2019-01-25T01:18:36.097Z,36.05
2019-01-25T01:21:03.177Z,34.92
2019-01-25T01:23:30.099Z,36.80
2019-01-25T01:25:56.901Z,36.48
2019-01-25T01:28:23.814Z,37.53
2019-01-25T01:30:51.090Z,37.38
2019-01-25T01:33:17.882Z,36.30
2019-01-25T01:35:44.801Z,36.95
2019-01-25T01:38:11.706Z,35.15
2019-01-25T01:40:38.722Z,36.55
2019-01-25T01:43:05.784Z,38.42
2019-01-25T01:45:32.701Z,37.35
2019-01-25T01:47:59.514Z,38.58
2019-01-25T01:50:26.534Z,37.78
2019-01-25T01:52:53.607Z,35.95
2019-01-25T01:55:20.521Z,35.88
2019-01-25T01:57:47.521Z,34.53
2019-01-25T02:00:22.533Z,35.13
2019-01-25T02:02:49.855Z,36.42
2019-01-25T02:05:17.227Z,34.33
2019-01-25T02:07:44.245Z,35.70
2019-01-25T02:10:14.010Z,33.48
2019-01-25T02:12:41.257Z,32.65
2019-01-25T02:15:10.430Z,33.40
2019-01-25T02:17:37.488Z,32.83
2019-01-25T02:20:05.778Z,33.05
2019-01-25T02:22:32.889Z,31.12
2019-01-25T02:24:59.930Z,30.48
2019-01-25T02:27:27.015Z,34.10
2019-01-25T02:29:53.819Z,36.23
2019-01-25T02:32:20.916Z,32.70
2019-01-25T02:34:47.810Z,34.58
2019-01-25T02:37:14.742Z,34.23
2019-01-25T02:39:41.542Z,33.42
2019-01-25T02:42:08.481Z,35.08
2019-01-25T02:44:35.274Z,34.67
2019-01-25T02:47:02.654Z,33.28
2019-01-25T02:49:29.574Z,35.73
2019-01-25T02:51:56.389Z,35.25
2019-01-25T02:54:23.191Z,35.98
2019-01-25T02:56:50.269Z,34.25
2019-01-25T02:59:17.262Z,35.05
2019-01-25T03:01:44.182Z,35.20
2019-01-25T03:04:11.449Z,32.38
2019-01-25T03:06:38.354Z,34.75
2019-01-25T03:09:08.397Z,32.08
2019-01-25T03:11:36.621Z,35.92
2019-01-25T03:14:04.088Z,35.48
2019-01-25T03:16:31.038Z,31.70
2019-01-25T03:18:58.103Z,33.83
2019-01-25T03:21:24.997Z,34.58
2019-01-25T03:23:51.909Z,31.37
2019-01-25T03:26:18.702Z,33.78
2019-01-25T03:28:45.535Z,33.83
2019-01-25T03:31:12.445Z,34.13
2019-01-25T03:33:39.509Z,33.55
2019-01-25T03:36:07.020Z,33.18
2019-01-25T03:38:33.950Z,34.75
2019-01-25T03:41:01.078Z,32.73
2019-01-25T03:43:28.237Z,34.75
2019-01-25T03:45:55.560Z,33.35
2019-01-25T03:48:22.736Z,31.95
2019-01-25T03:50:49.814Z,34.90
2019-01-25T03:53:16.770Z,34.40
2019-01-25T03:55:44.242Z,34.03
2019-01-25T03:58:11.196Z,36.73
2019-01-25T04:00:38.072Z,34.67
2019-01-25T04:03:05.174Z,33.75
2019-01-25T04:05:32.004Z,32.17
2019-01-25T04:07:58.909Z,36.42
2019-01-25T04:10:27.174Z,37.80
2019-01-25T04:12:54.441Z,36.77
2019-01-25T04:15:23.349Z,34.27
2019-01-25T04:17:50.715Z,34.33
2019-01-25T04:20:17.870Z,33.75
2019-01-25T04:22:45.219Z,33.13
2019-01-25T04:25:14.526Z,33.38
2019-01-25T04:27:41.633Z,30.48
2019-01-25T04:30:11.975Z,34.03
2019-01-25T04:32:39.211Z,34.83
2019-01-25T04:35:06.255Z,32.03
2019-01-25T04:37:33.249Z,35.28
2019-01-25T04:40:00.222Z,31.97
2019-01-25T04:42:27.525Z,31.35
2019-01-25T04:44:54.706Z,27.00
2019-01-25T04:47:26.754Z,26.95
2019-01-25T04:49:53.838Z,25.32
2019-01-25T04:52:20.638Z,25.43
2019-01-25T04:54:47.452Z,22.67
2019-01-25T04:57:14.698Z,25.23
2019-01-25T04:59:41.497Z,26.60
2019-01-25T05:02:08.513Z,27.70
2019-01-25T05:04:35.630Z,30.52
2019-01-25T05:07:03.428Z,30.70
2019-01-25T05:09:33.576Z,29.85
2019-01-25T05:12:00.786Z,30.02
2019-01-25T05:14:32.693Z,30.50
2019-01-25T05:16:59.762Z,29.50
2019-01-25T05:19:26.906Z,30.25
2019-01-25T05:21:53.725Z,29.30
2019-01-25T05:24:20.650Z,26.68
2019-01-25T05:26:47.474Z,31.37
2019-01-25T05:29:14.264Z,28.55
2019-01-25T05:31:41.462Z,26.65
2019-01-25T05:34:08.610Z,26.20
2019-01-25T05:36:35.441Z,25.97
2019-01-25T05:39:04.987Z,22.35
2019-01-25T05:41:31.806Z,23.45
2019-01-25T05:43:58.777Z,23.60
2019-01-25T05:46:25.701Z,23.65
2019-01-25T05:48:52.857Z,24.15
2019-01-25T05:51:19.702Z,26.77
2019-01-25T05:53:51.149Z,29.20
2019-01-25T05:56:18.536Z,29.37
2019-01-25T05:58:45.566Z,28.52
2019-01-25T06:01:12.722Z,28.40
2019-01-25T06:03:39.646Z,29.07
2019-01-25T06:06:06.852Z,28.05
2019-01-25T06:08:34.713Z,26.02
2019-01-25T06:11:06.925Z,26.05
2019-01-25T06:13:34.228Z,22.80
2019-01-25T06:16:01.461Z,22.87
2019-01-25T06:18:28.404Z,21.65
2019-01-25T06:20:55.698Z,22.05
2019-01-25T06:23:22.778Z,20.55
2019-01-25T06:25:54.304Z,22.50
2019-01-25T06:28:21.795Z,22.27
2019-01-25T06:30:48.784Z,22.35
2019-01-25T06:33:15.800Z,24.63
2019-01-25T06:35:42.801Z,25.65
2019-01-25T06:38:10.144Z,23.57
2019-01-25T06:40:37.051Z,24.10
2019-01-25T06:43:03.961Z,24.55
2019-01-25T06:45:30.861Z,24.10
2019-01-25T06:47:57.889Z,22.90
2019-01-25T06:50:24.977Z,23.42
2019-01-25T06:52:51.882Z,24.18
2019-01-25T06:55:18.899Z,21.73
2019-01-25T06:58:14.442Z,22.80
2019-01-25T07:00:47.118Z,21.25
2019-01-25T07:03:13.942Z,21.07
2019-01-25T07:05:40.841Z,22.60
2019-01-25T07:08:09.906Z,24.23
2019-01-25T07:10:36.928Z,23.98
2019-01-25T07:13:03.934Z,23.62
2019-01-25T07:15:30.840Z,27.22
2019-01-25T07:17:57.740Z,26.27
2019-01-25T07:20:24.550Z,26.27
2019-01-25T07:22:51.612Z,21.17
2019-01-25T07:25:18.873Z,24.10
2019-01-25T07:27:45.780Z,23.98
2019-01-25T07:30:12.845Z,23.10
2019-01-25T07:32:40.143Z,20.90
2019-01-25T07:35:07.789Z,22.82
2019-01-25T07:37:34.714Z,22.87
2019-01-25T07:40:02.358Z,21.90
2019-01-25T07:42:29.151Z,24.35
2019-01-25T07:44:56.172Z,22.87
2019-01-25T07:47:23.097Z,26.27
2019-01-25T07:49:50.001Z,25.48
2019-01-25T07:52:16.907Z,24.02
2019-01-25T07:54:43.990Z,23.92
2019-01-25T07:57:10.928Z,24.87
2019-01-25T07:59:38.261Z,24.47
2019-01-25T08:02:05.265Z,25.48
2019-01-25T08:04:32.082Z,25.62
2019-01-25T08:06:59.096Z,25.20
2019-01-25T08:09:26.144Z,24.12
2019-01-25T08:11:53.633Z,25.62
2019-01-25T08:14:20.533Z,25.32
2019-01-25T08:16:47.438Z,27.55
2019-01-25T08:19:14.239Z,26.42
2019-01-25T08:21:41.314Z,27.40
2019-01-25T08:24:08.657Z,28.57
2019-01-25T08:26:35.598Z,27.58
2019-01-25T08:29:02.620Z,26.93
2019-01-25T08:31:29.527Z,26.12
2019-01-25T08:33:56.428Z,26.30
2019-01-25T08:36:23.484Z,25.68
2019-01-25T08:38:50.590Z,26.55
2019-01-25T08:41:17.415Z,25.85
2019-01-25T08:43:44.874Z,26.25
2019-01-25T08:46:12.150Z,26.70
2019-01-25T08:48:43.001Z,27.30
2019-01-25T08:51:10.372Z,26.30
2019-01-25T08:53:37.269Z,26.30
2019-01-25T08:56:04.544Z,25.97
2019-01-25T08:58:31.565Z,29.12
2019-01-25T09:00:58.358Z,27.58
2019-01-25T09:03:25.166Z,26.42
2019-01-25T09:05:52.153Z,28.95
2019-01-25T09:08:18.974Z,26.12
2019-01-25T09:10:45.973Z,29.57
2019-01-25T09:13:12.867Z,27.48
2019-01-25T09:15:39.884Z,26.80
2019-01-25T09:18:07.134Z,25.52
2019-01-25T09:20:34.035Z,28.05
2019-01-25T09:23:01.193Z,27.15
2019-01-25T09:25:28.346Z,26.45
2019-01-25T09:27:55.269Z,27.48
2019-01-25T09:30:22.295Z,30.05
2019-01-25T09:32:49.457Z,27.27
2019-01-25T09:35:16.742Z,25.95
2019-01-25T09:37:43.766Z,27.58
2019-01-25T09:40:13.654Z,27.32
2019-01-25T09:42:40.726Z,26.65
2019-01-25T09:45:08.833Z,24.70
2019-01-25T09:47:35.846Z,26.12
2019-01-25T09:50:04.049Z,25.82
2019-01-25T09:52:31.066Z,26.07
2019-01-25T09:54:58.039Z,27.17
2019-01-25T09:57:24.917Z,25.72
2019-01-25T09:59:51.732Z,25.40
2019-01-25T10:02:18.545Z,23.40
2019-01-25T10:04:45.370Z,23.70
2019-01-25T10:07:12.278Z,19.77
2019-01-25T10:09:39.123Z,20.00
2019-01-25T10:12:06.277Z,15.98
2019-01-25T10:14:33.280Z,18.73
2019-01-25T10:17:00.354Z,20.45
2019-01-25T10:19:27.177Z,16.80
2019-01-25T10:21:54.342Z,18.37
2019-01-25T10:24:22.339Z,17.52
2019-01-25T10:26:49.359Z,19.60
2019-01-25T10:29:16.538Z,17.40
2019-01-25T10:31:43.745Z,15.03
2019-01-25T10:34:10.913Z,21.23
2019-01-25T10:36:37.918Z,20.10
2019-01-25T10:39:06.841Z,20.57
2019-01-25T10:41:33.757Z,19.82
2019-01-25T10:44:00.784Z,20.52
2019-01-25T10:46:27.688Z,20.80
2019-01-25T10:48:54.596Z,20.20
2019-01-25T10:51:21.409Z,20.05
2019-01-25T10:53:48.585Z,19.98
2019-01-25T10:56:15.419Z,18.62
2019-01-25T10:58:42.490Z,17.27
2019-01-25T11:01:09.509Z,20.35
2019-01-25T11:03:36.515Z,20.70
2019-01-25T11:06:03.958Z,21.90
2019-01-25T11:08:32.871Z,20.32
2019-01-25T11:11:00.398Z,21.90
2019-01-25T11:13:27.570Z,21.90
2019-01-25T11:15:54.638Z,20.00
2019-01-25T11:18:21.542Z,19.40
2019-01-25T11:20:48.467Z,20.08
2019-01-25T11:23:15.273Z,21.00
2019-01-25T11:25:42.290Z,19.48
2019-01-25T11:28:09.115Z,20.50
2019-01-25T11:30:36.142Z,19.55
2019-01-25T11:33:03.292Z,20.20
2019-01-25T11:35:30.569Z,20.92
2019-01-25T11:37:57.584Z,20.85
2019-01-25T11:40:27.008Z,18.27
2019-01-25T11:42:53.918Z,19.73
2019-01-25T11:45:20.835Z,20.15
2019-01-25T11:47:48.162Z,19.52
2019-01-25T11:50:15.297Z,20.27
2019-01-25T11:52:42.758Z,20.02
2019-01-25T11:55:10.097Z,22.25
2019-01-25T11:57:37.383Z,21.20
2019-01-25T12:00:08.716Z,24.90
2019-01-25T12:02:35.872Z,20.20
2019-01-25T12:05:03.661Z,21.80
2019-01-25T12:07:30.708Z,22.58
2019-01-25T12:09:57.749Z,23.42
2019-01-25T12:12:30.745Z,20.85
2019-01-25T12:14:57.745Z,21.42
2019-01-25T12:17:24.816Z,23.25
2019-01-25T12:19:51.849Z,24.05
2019-01-25T12:22:18.649Z,25.70
2019-01-25T12:24:45.454Z,24.72
2019-01-25T12:27:12.525Z,26.75
2019-01-25T12:29:39.521Z,23.85
2019-01-25T12:32:06.781Z,24.72
2019-01-25T12:34:33.636Z,24.52
2019-01-25T12:37:04.719Z,25.90
2019-01-25T12:39:30.098Z,24.00
2019-01-25T12:41:57.008Z,26.60
2019-01-25T12:44:23.820Z,28.87
2019-01-25T12:46:50.730Z,26.95
2019-01-25T12:49:17.554Z,25.95
2019-01-25T12:51:50.226Z,27.62
2019-01-25T12:54:17.097Z,28.38
2019-01-25T12:56:44.008Z,28.40
2019-01-25T12:59:10.831Z,29.37
2019-01-25T13:01:39.740Z,29.45
2019-01-25T13:04:06.758Z,27.10
2019-01-25T13:06:34.208Z,29.95
2019-01-25T13:09:01.268Z,28.87
2019-01-25T13:11:28.566Z,30.10
2019-01-25T13:13:55.432Z,29.77
2019-01-25T13:16:22.630Z,27.07
2019-01-25T13:18:49.438Z,30.40
2019-01-25T13:21:16.718Z,29.25
2019-01-25T13:23:43.741Z,30.85
2019-01-25T13:26:11.005Z,29.52
2019-01-25T13:28:41.747Z,29.00
2019-01-25T13:31:07.426Z,33.10
2019-01-25T13:33:34.686Z,30.68
2019-01-25T13:36:01.693Z,28.00
2019-01-25T13:38:28.588Z,28.90
2019-01-25T13:40:55.632Z,29.18
2019-01-25T13:43:22.629Z,31.02
2019-01-25T13:45:49.538Z,28.52
2019-01-25T13:48:16.428Z,27.55
2019-01-25T13:50:43.345Z,28.80
2019-01-25T13:53:10.150Z,30.05
2019-01-25T13:55:36.970Z,29.05
2019-01-25T13:58:04.320Z,29.80
2019-01-25T14:00:32.546Z,26.45
2019-01-25T14:02:59.613Z,29.45
2019-01-25T14:05:26.527Z,27.85
2019-01-25T14:07:53.456Z,27.85
2019-01-25T14:10:22.494Z,31.02
2019-01-25T14:12:49.478Z,29.40
2019-01-25T14:15:16.483Z,26.80
2019-01-25T14:17:43.530Z,28.12
2019-01-25T14:20:13.603Z,30.17
2019-01-25T14:22:40.498Z,28.30
2019-01-25T14:25:08.286Z,27.22
2019-01-25T14:27:35.137Z,27.10
2019-01-25T14:30:03.209Z,28.50
2019-01-25T14:32:30.222Z,30.05
2019-01-25T14:34:57.264Z,25.85
2019-01-25T14:37:24.182Z,26.50
2019-01-25T14:39:50.976Z,27.40
2019-01-25T14:42:17.789Z,25.70
2019-01-25T14:44:44.991Z,29.70
2019-01-25T14:47:11.795Z,27.32
2019-01-25T14:49:39.254Z,29.50
2019-01-25T14:52:06.253Z,28.35
2019-01-25T14:54:33.643Z,28.98
2019-01-25T14:57:00.813Z,30.02
2019-01-25T14:59:27.952Z,29.15
2019-01-25T15:01:54.894Z,29.37
2019-01-25T15:04:22.042Z,28.47
2019-01-25T15:06:49.214Z,30.15
2019-01-25T15:09:16.508Z,28.20
2019-01-25T15:11:43.728Z,29.23
2019-01-25T15:14:10.826Z,26.70
2019-01-25T15:16:38.089Z,28.27
2019-01-25T15:19:05.378Z,25.88
2019-01-25T15:21:32.310Z,28.02
2019-01-25T15:23:59.210Z,26.60
2019-01-25T15:26:26.397Z,24.75
2019-01-25T15:28:53.370Z,25.97
2019-01-25T15:31:20.277Z,25.95
2019-01-25T15:33:47.355Z,26.62
2019-01-25T15:36:14.514Z,23.98
2019-01-25T15:38:41.385Z,26.57
2019-01-25T15:41:08.450Z,24.82
2019-01-25T15:43:35.265Z,23.75
2019-01-25T15:46:02.634Z,24.47
2019-01-25T15:48:29.966Z,22.37
2019-01-25T15:50:57.049Z,24.23
2019-01-25T15:53:23.993Z,23.77
2019-01-25T15:55:51.296Z,23.07
2019-01-25T15:58:18.508Z,23.27
2019-01-25T16:00:45.548Z,21.45
2019-01-25T16:03:12.478Z,21.80
2019-01-25T16:05:39.550Z,23.80
2019-01-25T16:08:06.931Z,22.87
2019-01-25T16:10:33.746Z,23.95
2019-01-25T16:13:00.946Z,23.32
2019-01-25T16:15:29.726Z,24.45
2019-01-25T16:17:56.833Z,24.15
2019-01-25T16:20:23.906Z,22.62
2019-01-25T16:22:51.247Z,21.42
2019-01-25T16:25:20.685Z,22.67
2019-01-25T16:27:47.912Z,21.27
2019-01-25T16:30:17.916Z,23.30
2019-01-25T16:32:44.837Z,21.65
2019-01-25T16:35:12.559Z,21.30
2019-01-25T16:37:39.817Z,22.93
2019-01-25T16:40:09.677Z,20.90
2019-01-25T16:42:36.710Z,22.13
2019-01-25T16:45:05.282Z,21.93
2019-01-25T16:47:32.359Z,24.10
2019-01-25T16:49:59.695Z,22.50
2019-01-25T16:52:26.689Z,24.92
2019-01-25T16:54:53.758Z,24.20
2019-01-25T16:57:20.826Z,24.45
2019-01-25T16:59:47.754Z,23.42
2019-01-25T17:02:14.662Z,23.10
2019-01-25T17:04:41.909Z,24.32
2019-01-25T17:07:08.980Z,25.23
2019-01-25T17:09:35.788Z,27.48
2019-01-25T17:12:03.163Z,25.23
2019-01-25T17:14:33.550Z,24.27
2019-01-25T17:16:58.873Z,25.12
2019-01-25T17:19:25.670Z,23.30
2019-01-25T17:21:52.678Z,27.17
2019-01-25T17:24:19.729Z,27.77
2019-01-25T17:26:46.737Z,26.37
2019-01-25T17:29:13.900Z,27.07
2019-01-25T17:31:40.718Z,23.80
2019-01-25T17:34:07.614Z,25.72
2019-01-25T17:36:34.525Z,26.70
2019-01-25T17:39:01.342Z,25.95
2019-01-25T17:41:28.350Z,28.27
2019-01-25T17:43:55.341Z,25.75
2019-01-25T17:46:22.169Z,24.82
2019-01-25T17:48:49.688Z,27.05
2019-01-25T17:51:16.579Z,26.77
2019-01-25T17:53:43.598Z,25.57
2019-01-25T17:56:10.756Z,28.07
2019-01-25T17:58:38.941Z,24.98
2019-01-25T18:01:06.121Z,25.02
2019-01-25T18:03:33.339Z,27.90
2019-01-25T18:06:00.529Z,25.27
2019-01-25T18:08:27.438Z,27.90
2019-01-25T18:10:54.576Z,27.15
2019-01-25T18:13:21.505Z,25.70
2019-01-25T18:15:48.409Z,27.02
2019-01-25T18:18:15.427Z,27.60
2019-01-25T18:20:42.581Z,27.52
2019-01-25T18:23:09.606Z,27.20
2019-01-25T18:25:44.826Z,25.32
2019-01-25T18:28:15.275Z,25.92
2019-01-25T18:30:48.636Z,24.65
2019-01-25T18:33:15.813Z,25.17
2019-01-25T18:35:42.713Z,24.18
2019-01-25T18:38:09.881Z,24.80
2019-01-25T18:40:37.053Z,22.30
2019-01-25T18:43:04.778Z,23.87
2019-01-25T18:45:32.046Z,25.08
2019-01-25T18:47:59.107Z,25.05
2019-01-25T18:50:26.063Z,22.48
2019-01-25T18:52:52.974Z,22.93
2019-01-25T18:55:20.692Z,23.65
2019-01-25T18:57:47.758Z,20.60
2019-01-25T19:00:16.689Z,22.13
2019-01-25T19:02:43.842Z,22.70
2019-01-25T19:05:10.864Z,21.73
2019-01-25T19:07:37.777Z,21.10
2019-01-25T19:10:07.076Z,22.42
2019-01-25T19:12:34.084Z,22.93
2019-01-25T19:15:04.582Z,23.42
2019-01-25T19:17:30.023Z,22.17
2019-01-25T19:19:56.854Z,21.95
2019-01-25T19:22:23.926Z,21.17
2019-01-25T19:24:51.126Z,20.50
2019-01-25T19:27:17.929Z,21.95
2019-01-25T19:29:44.871Z,23.27
2019-01-25T19:32:11.870Z,21.87
2019-01-25T19:34:38.703Z,21.60
2019-01-25T19:37:05.712Z,22.62
2019-01-25T19:39:32.726Z,20.40
2019-01-25T19:41:59.791Z,19.67
2019-01-25T19:44:26.709Z,22.20
2019-01-25T19:46:53.898Z,20.02
2019-01-25T19:49:21.161Z,22.05
2019-01-25T19:51:48.602Z,21.17
2019-01-25T19:54:15.495Z,20.70
2019-01-25T19:56:42.489Z,20.20
2019-01-25T19:59:09.604Z,18.60
2019-01-25T20:01:36.621Z,19.57
2019-01-25T20:04:04.742Z,22.07
2019-01-25T20:06:31.766Z,20.65
2019-01-25T20:08:58.673Z,21.48
2019-01-25T20:11:25.954Z,21.20
2019-01-25T20:13:52.865Z,20.02
2019-01-25T20:16:19.689Z,19.52
2019-01-25T20:18:46.865Z,19.40
2019-01-25T20:21:13.905Z,19.00
2019-01-25T20:23:40.717Z,19.52
2019-01-25T20:26:07.741Z,18.20
2019-01-25T20:28:34.665Z,19.02
2019-01-25T20:31:01.938Z,16.15
2019-01-25T20:33:29.406Z,19.32
2019-01-25T20:35:56.590Z,18.27
2019-01-25T20:38:23.658Z,16.70
2019-01-25T20:40:50.482Z,17.05
2019-01-25T20:43:17.296Z,18.75
2019-01-25T20:45:44.594Z,17.85
2019-01-25T20:48:11.875Z,16.85
2019-01-25T20:50:39.187Z,16.07
2019-01-25T20:53:07.853Z,16.60
2019-01-25T20:55:35.253Z,16.45
2019-01-25T20:58:02.289Z,15.85
2019-01-25T21:00:31.232Z,16.62
2019-01-25T21:02:58.542Z,16.30
2019-01-25T21:05:25.565Z,14.00
2019-01-25T21:07:52.682Z,15.10
2019-01-25T21:10:20.505Z,15.50
2019-01-25T21:12:47.436Z,17.12
2019-01-25T21:15:16.187Z,16.27
2019-01-25T21:17:43.474Z,16.42
2019-01-25T21:20:13.342Z,15.32
2019-01-25T21:22:40.391Z,15.08
2019-01-25T21:25:07.497Z,15.08
2019-01-25T21:27:34.548Z,15.55
2019-01-25T21:30:01.492Z,18.10
2019-01-25T21:32:28.850Z,15.00
2019-01-25T21:34:56.029Z,15.08
2019-01-25T21:37:23.001Z,16.32
2019-01-25T21:39:50.128Z,14.43
2019-01-25T21:42:17.694Z,14.90
2019-01-25T21:44:44.516Z,16.32
2019-01-25T21:47:11.793Z,15.20
2019-01-25T21:49:38.965Z,15.80
2019-01-25T21:52:06.133Z,17.10
2019-01-25T21:54:33.306Z,18.23
2019-01-25T21:57:00.143Z,19.40
2019-01-25T21:59:27.571Z,20.68
2019-01-25T22:01:55.090Z,20.77
2019-01-25T22:04:23.360Z,15.60
2019-01-25T22:06:50.557Z,15.48
2019-01-25T22:09:17.640Z,16.60
2019-01-25T22:11:45.013Z,14.23
2019-01-25T22:14:12.182Z,14.83
2019-01-25T22:16:39.191Z,15.20
2019-01-25T22:19:06.396Z,14.83
2019-01-25T22:21:33.697Z,15.80
2019-01-25T22:24:00.869Z,15.32
2019-01-25T22:26:27.949Z,15.75
2019-01-25T22:28:54.908Z,15.28
2019-01-25T22:31:22.181Z,15.70
2019-01-25T22:33:49.282Z,15.20
2019-01-25T22:36:16.307Z,15.65
2019-01-25T22:38:43.221Z,16.20
2019-01-25T22:41:10.160Z,14.60
2019-01-25T22:43:36.982Z,14.95
2019-01-25T22:46:04.123Z,15.95
2019-01-25T22:48:31.268Z,15.32
2019-01-25T22:50:58.365Z,14.83
2019-01-25T22:53:25.178Z,13.83
2019-01-25T22:55:52.850Z,14.98
2019-01-25T22:58:19.876Z,13.53
2019-01-25T23:01:06.025Z,14.25
2019-01-25T23:03:36.966Z,15.40
2019-01-25T23:06:27.926Z,15.35
2019-01-25T23:08:56.470Z,13.00
2019-01-25T23:11:23.904Z,16.37
2019-01-25T23:13:50.722Z,14.15
2019-01-25T23:16:18.094Z,14.60
2019-01-25T23:18:45.414Z,14.35
2019-01-25T23:21:12.633Z,15.13
2019-01-25T23:23:39.993Z,14.30
2019-01-25T23:26:07.285Z,13.62
2019-01-25T23:28:34.112Z,13.70
2019-01-25T23:31:01.118Z,13.78
2019-01-25T23:33:28.029Z,14.23
2019-01-25T23:35:55.086Z,12.85
2019-01-25T23:38:22.231Z,13.20
2019-01-25T23:40:49.224Z,14.95
2019-01-25T23:43:16.510Z,12.98
2019-01-25T23:45:43.429Z,12.35
2019-01-25T23:48:10.922Z,13.40
2019-01-25T23:50:37.998Z,12.40
2019-01-25T23:53:05.200Z,12.80
2019-01-25T23:55:32.718Z,13.93
2019-01-25T23:58:00.008Z,12.50
